Time;durP1;ratioP1;P1;durP2;ratioP2;P2;SDS_P1;SDS_P2;PMS_P1;PMS_P2;Temp;Humidity;BMP_temperature;BMP_pressure;BME280_temperature;BME280_humidity;BME280_pressure;Samples;Min_cycle;Max_cycle;Signal;HPM_P1;HPM_P2
2022/12/31 00:01:19;;;;;;;2.07;0.70;;;13.40;77.60;;;;;;5116996;27;20517;-63
2022/12/31 00:03:46;;;;;;;1.60;0.57;;;13.40;77.50;;;;;;5135976;27;20939;-63
2022/12/31 00:06:16;;;;;;;3.00;0.50;;;13.40;77.30;;;;;;5135130;27;20437;-65
2022/12/31 00:08:44;;;;;;;1.80;0.60;;;13.50;77.20;;;;;;5115404;28;20540;-63
2022/12/31 00:11:13;;;;;;;1.80;0.60;;;13.50;76.90;;;;;;5115331;27;21259;-64
2022/12/31 00:13:41;;;;;;;2.57;0.60;;;13.60;76.80;;;;;;5094993;28;20451;-62
2022/12/31 00:16:11;;;;;;;2.00;0.70;;;13.50;76.70;;;;;;5094643;28;20435;-63
2022/12/31 00:18:38;;;;;;;1.60;0.60;;;13.60;77.10;;;;;;5134374;27;20517;-63
2022/12/31 00:21:07;;;;;;;1.50;0.60;;;13.60;77.30;;;;;;5135773;27;20776;-63
2022/12/31 00:23:34;;;;;;;1.70;0.60;;;13.60;77.50;;;;;;5116543;27;20546;-63
2022/12/31 00:26:06;;;;;;;1.50;0.57;;;13.60;77.60;;;;;;5114994;28;20443;-63
2022/12/31 00:28:36;;;;;;;2.00;0.53;;;13.60;77.60;;;;;;5131615;27;20456;-63
2022/12/31 00:31:08;;;;;;;2.30;0.60;;;13.60;77.70;;;;;;5135449;27;20433;-63
2022/12/31 00:33:36;;;;;;;1.50;0.50;;;13.60;77.80;;;;;;5117605;27;20487;-63
2022/12/31 00:36:09;;;;;;;1.50;0.60;;;13.60;77.80;;;;;;5114453;27;20462;-64
2022/12/31 00:38:37;;;;;;;1.50;0.60;;;13.60;77.90;;;;;;5126866;27;20433;-64
2022/12/31 00:41:06;;;;;;;1.60;0.70;;;13.70;78.20;;;;;;5114881;28;20834;-63
2022/12/31 00:43:35;;;;;;;2.70;0.77;;;13.70;78.10;;;;;;5114645;28;20527;-63
2022/12/31 00:46:03;;;;;;;1.50;0.60;;;13.70;78.10;;;;;;5129132;27;20441;-63
2022/12/31 00:48:30;;;;;;;2.17;0.60;;;13.70;79.30;;;;;;5135125;27;20437;-63
2022/12/31 00:50:58;;;;;;;1.60;0.60;;;13.70;78.50;;;;;;5121313;27;20438;-62
2022/12/31 00:53:26;;;;;;;1.50;0.53;;;13.70;78.30;;;;;;5114383;28;20435;-63
2022/12/31 00:55:59;;;;;;;1.67;0.60;;;13.70;78.40;;;;;;5126500;27;21008;-63
2022/12/31 00:58:26;;;;;;;1.50;0.60;;;13.70;78.80;;;;;;5134716;27;20433;-62
2022/12/31 01:00:55;;;;;;;1.50;0.50;;;13.70;78.80;;;;;;5122956;27;20442;-62
2022/12/31 01:03:22;;;;;;;1.60;0.53;;;13.70;78.90;;;;;;5114469;28;20446;-62
2022/12/31 01:05:50;;;;;;;1.60;0.80;;;13.70;78.70;;;;;;5124256;27;20461;-63
2022/12/31 01:08:17;;;;;;;1.50;0.60;;;13.70;78.40;;;;;;5134725;27;20444;-63
2022/12/31 01:13:33;;;;;;;2.07;0.80;;;13.70;78.40;;;;;;5114258;28;20639;-63
2022/12/31 01:16:09;;;;;;;2.50;0.57;;;13.80;78.50;;;;;;5124240;27;20459;-63
2022/12/31 01:18:37;;;;;;;1.50;0.50;;;13.70;77.60;;;;;;5126009;27;20510;-62
2022/12/31 01:21:07;;;;;;;1.50;0.70;;;13.70;77.40;;;;;;5113861;28;20446;-63
2022/12/31 01:23:34;;;;;;;2.83;0.60;;;13.80;77.30;;;;;;5120256;27;20445;-63
2022/12/31 01:26:02;;;;;;;1.50;0.50;;;13.80;77.30;;;;;;5134355;27;20448;-63
2022/12/31 01:28:30;;;;;;;2.37;0.60;;;13.80;77.10;;;;;;5128479;27;20435;-63
2022/12/31 01:30:58;;;;;;;2.67;0.60;;;13.80;76.80;;;;;;5113756;28;20434;-63
2022/12/31 01:33:27;;;;;;;1.53;0.60;;;13.70;76.60;;;;;;5117283;27;20437;-63
2022/12/31 01:35:54;;;;;;;1.60;0.50;;;13.80;76.50;;;;;;5134050;27;21039;-63
2022/12/31 01:38:21;;;;;;;1.50;0.57;;;13.80;76.90;;;;;;5130504;27;20465;-63
2022/12/31 01:40:51;;;;;;;1.87;0.50;;;13.80;75.40;;;;;;5114357;27;20441;-63
2022/12/31 01:43:20;;;;;;;1.60;0.60;;;13.80;75.00;;;;;;5134203;27;20434;-64
2022/12/31 01:45:51;;;;;;;1.60;0.77;;;13.80;74.70;;;;;;5132721;27;20488;-63
2022/12/31 01:48:23;;;;;;;1.60;0.60;;;13.80;74.70;;;;;;5113634;28;20451;-63
2022/12/31 01:50:53;;;;;;;1.80;0.50;;;13.80;74.60;;;;;;5113876;27;20438;-64
2022/12/31 01:53:21;;;;;;;1.70;0.67;;;13.80;74.30;;;;;;5133978;27;20522;-63
2022/12/31 01:55:52;;;;;;;1.80;0.73;;;13.80;73.70;;;;;;5133671;27;20495;-67
2022/12/31 01:58:22;;;;;;;1.50;0.50;;;13.90;73.20;;;;;;5092916;28;20564;-63
2022/12/31 02:00:51;;;;;;;1.47;0.50;;;13.90;72.80;;;;;;5093090;28;20446;-63
2022/12/31 02:03:20;;;;;;;1.50;0.50;;;14.00;72.80;;;;;;5113243;27;20549;-63
2022/12/31 02:05:58;;;;;;;1.50;0.50;;;14.00;72.80;;;;;;5113026;28;20478;-63
2022/12/31 02:08:25;;;;;;;1.50;0.60;;;14.00;72.30;;;;;;5132914;27;20520;-64
2022/12/31 02:10:53;;;;;;;1.50;0.50;;;14.10;71.90;;;;;;5133566;27;20472;-63
2022/12/31 02:13:20;;;;;;;1.50;0.53;;;14.10;71.50;;;;;;5114278;27;20444;-62
2022/12/31 02:16:00;;;;;;;1.70;0.50;;;14.10;71.30;;;;;;5112860;28;20442;-63
2022/12/31 02:18:34;;;;;;;1.53;0.60;;;14.10;71.30;;;;;;5131816;27;20438;-63
2022/12/31 02:21:30;;;;;;;1.50;0.50;;;14.20;70.80;;;;;;5120454;27;20752;-63
2022/12/31 02:24:25;;;;;;;1.50;0.60;;;14.20;70.60;;;;;;5133448;27;20493;-62
2022/12/31 02:26:59;;;;;;;2.10;0.60;;;14.20;70.50;;;;;;5117880;27;20441;-64
2022/12/31 02:30:09;;;;;;;1.50;0.50;;;14.30;70.40;;;;;;5112793;28;20441;-64
2022/12/31 02:32:47;;;;;;;1.87;0.67;;;14.30;70.10;;;;;;5112301;28;20434;-62
2022/12/31 02:35:20;;;;;;;1.50;0.50;;;14.40;69.90;;;;;;5112344;28;20476;-63
2022/12/31 02:37:52;;;;;;;1.60;0.60;;;14.40;69.60;;;;;;5092446;28;20442;-62
2022/12/31 02:40:22;;;;;;;1.70;0.60;;;14.40;69.60;;;;;;5092658;28;20435;-63
2022/12/31 02:42:49;;;;;;;2.43;0.60;;;14.40;70.40;;;;;;5107105;28;20460;-63
2022/12/31 02:45:27;;;;;;;1.50;0.60;;;14.50;69.60;;;;;;5112732;28;20514;-63
2022/12/31 02:51:14;;;;;;;1.80;0.67;;;14.50;69.00;;;;;;5115842;27;20429;-62
2022/12/31 02:53:54;;;;;;;1.60;0.60;;;14.60;68.10;;;;;;5135233;27;20460;-63
2022/12/31 02:56:26;;;;;;;1.50;0.50;;;14.60;68.00;;;;;;5119847;28;20422;-62
2022/12/31 03:04:38;;;;;;;1.80;0.50;;;14.70;67.80;;;;;;5128196;27;20927;-62
2022/12/31 03:07:07;;;;;;;1.50;0.60;;;14.70;67.30;;;;;;5119461;27;20521;-62
2022/12/31 03:09:36;;;;;;;2.43;0.70;;;14.80;67.40;;;;;;5128815;27;20988;-62
2022/12/31 03:15:05;;;;;;;1.60;0.60;;;14.80;66.50;;;;;;5082287;28;20526;-63
2022/12/31 03:17:34;;;;;;;1.50;0.60;;;14.80;65.60;;;;;;5121931;27;20441;-62
2022/12/31 03:22:46;;;;;;;1.90;0.50;;;15.00;65.60;;;;;;5124929;27;20490;-63
2022/12/31 03:25:34;;;;;;;1.60;0.60;;;15.00;65.60;;;;;;5118592;27;20815;-63
2022/12/31 03:28:03;;;;;;;1.90;0.60;;;15.00;65.00;;;;;;5134165;27;20436;-62
2022/12/31 03:30:31;;;;;;;1.80;0.80;;;15.10;64.90;;;;;;5139562;27;20498;-62
2022/12/31 03:32:59;;;;;;;2.13;0.80;;;15.10;64.70;;;;;;5129674;27;20438;-64
2022/12/31 03:35:29;;;;;;;2.63;0.70;;;15.10;64.40;;;;;;5118685;27;20819;-63
2022/12/31 03:37:57;;;;;;;2.13;0.80;;;15.10;64.50;;;;;;5132307;27;20425;-63
2022/12/31 03:40:27;;;;;;;2.40;0.80;;;15.10;64.10;;;;;;5139357;27;20441;-65
2022/12/31 03:42:54;;;;;;;2.80;0.70;;;15.20;64.30;;;;;;5126395;27;20450;-64
2022/12/31 03:45:21;;;;;;;1.50;0.50;;;15.20;63.90;;;;;;5118792;28;21010;-62
2022/12/31 03:47:49;;;;;;;1.50;0.60;;;15.30;63.10;;;;;;5130133;27;20611;-64
2022/12/31 03:50:19;;;;;;;1.57;0.60;;;15.30;63.40;;;;;;5139473;27;20465;-63
2022/12/31 03:52:47;;;;;;;1.70;0.50;;;15.30;63.50;;;;;;5128113;27;20970;-63
2022/12/31 03:55:14;;;;;;;1.60;0.70;;;15.30;63.40;;;;;;5120808;27;20450;-63
2022/12/31 03:57:42;;;;;;;1.53;0.63;;;15.30;63.30;;;;;;5139552;27;20441;-63
2022/12/31 04:00:13;;;;;;;1.50;0.60;;;15.30;62.80;;;;;;5137856;27;20433;-62
2022/12/31 04:02:41;;;;;;;2.13;0.60;;;15.30;63.00;;;;;;5115402;28;20442;-63
2022/12/31 04:05:09;;;;;;;1.80;0.70;;;15.30;62.70;;;;;;5115673;27;20520;-62
2022/12/31 04:07:38;;;;;;;2.30;0.63;;;15.30;62.60;;;;;;5136277;27;20524;-62
2022/12/31 04:10:07;;;;;;;1.53;0.57;;;15.20;62.50;;;;;;5136016;27;20437;-65
2022/12/31 04:12:35;;;;;;;1.83;0.63;;;15.20;62.50;;;;;;5095417;28;20839;-63
2022/12/31 04:15:02;;;;;;;1.70;0.80;;;15.20;62.40;;;;;;5095020;28;20442;-63
2022/12/31 04:17:29;;;;;;;1.60;0.60;;;15.20;62.60;;;;;;5133429;27;20438;-65
2022/12/31 04:19:56;;;;;;;1.60;0.70;;;15.20;62.90;;;;;;5131919;27;20540;-63
2022/12/31 04:22:24;;;;;;;2.43;0.70;;;15.20;63.00;;;;;;5115500;28;20562;-63
2022/12/31 04:24:52;;;;;;;2.60;0.70;;;15.20;63.20;;;;;;5116853;27;20526;-62
2022/12/31 04:27:19;;;;;;;1.57;0.57;;;15.20;63.20;;;;;;5136070;27;20464;-62
2022/12/31 04:29:46;;;;;;;1.57;0.70;;;15.20;63.20;;;;;;5134702;27;20441;-63
2022/12/31 04:32:14;;;;;;;1.60;0.70;;;15.20;63.20;;;;;;5115175;28;20470;-62
2022/12/31 04:34:41;;;;;;;1.67;0.67;;;15.20;63.40;;;;;;5114984;28;20525;-63
2022/12/31 04:37:08;;;;;;;1.50;0.50;;;15.20;63.60;;;;;;5134441;27;20891;-62
2022/12/31 04:39:35;;;;;;;1.73;0.70;;;15.20;63.50;;;;;;5126832;27;20928;-63
2022/12/31 04:42:04;;;;;;;1.70;0.60;;;15.10;63.20;;;;;;5115110;28;20442;-62
2022/12/31 04:44:33;;;;;;;1.67;0.60;;;15.10;63.50;;;;;;5121682;27;20429;-63
2022/12/31 04:47:00;;;;;;;2.20;0.63;;;15.10;63.70;;;;;;5135628;27;20433;-62
2022/12/31 04:49:28;;;;;;;1.60;0.70;;;15.10;63.70;;;;;;5128650;27;20529;-63
2022/12/31 04:51:55;;;;;;;1.90;0.80;;;15.20;63.80;;;;;;5114931;27;20462;-62
2022/12/31 04:54:22;;;;;;;2.07;0.70;;;15.20;63.50;;;;;;5119405;27;20530;-64
2022/12/31 04:56:50;;;;;;;3.83;0.90;;;15.10;63.50;;;;;;5135347;27;20433;-63
2022/12/31 04:59:18;;;;;;;2.80;0.70;;;15.00;63.50;;;;;;5131016;27;20483;-62
2022/12/31 05:01:46;;;;;;;1.80;0.60;;;15.00;63.60;;;;;;5114374;28;20434;-62
2022/12/31 05:04:13;;;;;;;2.47;0.83;;;15.00;63.70;;;;;;5122039;27;20441;-62
2022/12/31 05:06:40;;;;;;;1.87;0.60;;;15.00;63.90;;;;;;5134960;27;20488;-63
2022/12/31 05:09:07;;;;;;;3.03;0.57;;;15.00;64.00;;;;;;5128309;27;20936;-63
2022/12/31 05:11:34;;;;;;;1.90;0.70;;;15.00;64.10;;;;;;5114401;28;20442;-62
2022/12/31 05:14:01;;;;;;;5.93;0.70;;;15.00;64.00;;;;;;5118707;27;20549;-63
2022/12/31 05:16:30;;;;;;;1.60;0.70;;;15.00;64.10;;;;;;5134859;27;20860;-63
2022/12/31 05:18:57;;;;;;;2.00;0.67;;;15.00;64.00;;;;;;5130654;27;20501;-62
2022/12/31 05:21:24;;;;;;;1.77;0.80;;;15.00;64.10;;;;;;5114073;28;20489;-64
2022/12/31 05:23:51;;;;;;;1.63;0.70;;;14.90;64.10;;;;;;5116377;27;20464;-63
2022/12/31 05:26:19;;;;;;;2.20;0.73;;;14.90;64.50;;;;;;5134783;27;20986;-62
2022/12/31 05:28:46;;;;;;;2.00;0.67;;;14.80;64.60;;;;;;5133013;27;20437;-63
2022/12/31 05:31:13;;;;;;;1.60;0.53;;;14.70;64.80;;;;;;5114108;28;20434;-62
2022/12/31 05:33:42;;;;;;;1.70;0.60;;;14.60;65.40;;;;;;5114042;28;20495;-65
2022/12/31 05:36:09;;;;;;;1.50;0.53;;;14.50;65.30;;;;;;5115422;27;20541;-62
2022/12/31 05:38:37;;;;;;;1.60;0.70;;;14.50;65.80;;;;;;5113757;28;20862;-62
2022/12/31 05:41:06;;;;;;;1.60;0.60;;;14.40;66.10;;;;;;5113921;28;20434;-62
2022/12/31 05:43:34;;;;;;;1.60;0.60;;;14.40;66.20;;;;;;5113820;27;20513;-62
2022/12/31 05:46:02;;;;;;;2.10;0.50;;;14.30;66.70;;;;;;5113625;28;20477;-63
2022/12/31 05:48:30;;;;;;;1.80;0.60;;;14.20;66.70;;;;;;5131019;27;20437;-63
2022/12/31 05:50:58;;;;;;;2.07;0.60;;;14.20;66.90;;;;;;5134170;27;20444;-64
2022/12/31 05:53:25;;;;;;;1.77;0.67;;;14.10;66.90;;;;;;5117103;27;20438;-62
2022/12/31 05:55:53;;;;;;;2.27;0.80;;;14.00;66.90;;;;;;5113512;28;20978;-62
2022/12/31 05:58:21;;;;;;;1.80;0.80;;;13.90;66.80;;;;;;5128503;27;20509;-63
2022/12/31 06:00:48;;;;;;;2.03;0.70;;;13.80;66.70;;;;;;5134076;27;20521;-62
2022/12/31 06:03:15;;;;;;;2.13;0.73;;;13.80;66.50;;;;;;5119633;27;20454;-63
2022/12/31 06:05:43;;;;;;;2.07;0.90;;;13.70;66.70;;;;;;5113206;28;20579;-63
2022/12/31 06:08:12;;;;;;;1.80;0.80;;;13.70;66.70;;;;;;5125438;27;20962;-62
2022/12/31 06:10:40;;;;;;;1.90;0.73;;;13.60;66.50;;;;;;5133942;27;20834;-63
2022/12/31 06:13:07;;;;;;;1.97;0.90;;;13.40;66.60;;;;;;5121524;27;20525;-63
2022/12/31 06:15:38;;;;;;;1.80;0.80;;;13.40;66.70;;;;;;5113178;28;20552;-62
2022/12/31 06:18:05;;;;;;;2.03;0.80;;;13.40;66.80;;;;;;5129539;27;20480;-63
2022/12/31 06:20:33;;;;;;;2.20;1.00;;;13.20;67.00;;;;;;5133546;27;20553;-63
2022/12/31 06:23:00;;;;;;;3.83;1.90;;;13.20;67.00;;;;;;5117997;27;20435;-62
2022/12/31 06:25:29;;;;;;;2.10;0.90;;;13.00;67.30;;;;;;5112298;28;21002;-63
2022/12/31 06:27:56;;;;;;;1.90;0.97;;;12.90;67.50;;;;;;5126908;27;20437;-62
2022/12/31 06:30:23;;;;;;;1.90;1.07;;;12.80;67.50;;;;;;5133415;27;20456;-62
2022/12/31 06:32:51;;;;;;;1.93;0.80;;;12.80;67.60;;;;;;5120181;27;20912;-62
2022/12/31 06:35:18;;;;;;;2.07;0.90;;;12.80;67.70;;;;;;5113029;28;20523;-62
2022/12/31 06:37:45;;;;;;;1.70;0.70;;;12.80;67.70;;;;;;5124034;27;20481;-62
2022/12/31 06:40:13;;;;;;;2.47;1.00;;;12.80;67.60;;;;;;5133561;27;20445;-63
2022/12/31 06:42:42;;;;;;;1.97;1.03;;;12.80;67.50;;;;;;5122398;27;20444;-62
2022/12/31 06:45:09;;;;;;;1.77;0.80;;;12.80;67.50;;;;;;5112558;28;20426;-63
2022/12/31 06:47:36;;;;;;;2.47;0.90;;;12.80;67.40;;;;;;5121524;27;20444;-62
2022/12/31 06:50:05;;;;;;;1.80;0.70;;;12.80;67.30;;;;;;5133049;27;20993;-63
2022/12/31 06:52:33;;;;;;;2.00;0.93;;;12.80;67.30;;;;;;5124760;27;20778;-62
2022/12/31 06:55:00;;;;;;;1.70;0.97;;;12.80;67.30;;;;;;5112515;28;20441;-62
2022/12/31 06:57:28;;;;;;;2.17;1.13;;;12.70;67.40;;;;;;5118887;28;20494;-63
2022/12/31 06:59:57;;;;;;;1.90;0.93;;;12.70;67.40;;;;;;5132950;27;20882;-62
2022/12/31 07:02:40;;;;;;;2.70;1.60;;;12.70;67.70;;;;;;5126895;27;20959;-62
2022/12/31 07:05:28;;;;;;;2.27;1.30;;;12.70;67.80;;;;;;5112606;28;20951;-63
2022/12/31 07:08:06;;;;;;;2.60;1.37;;;12.60;68.00;;;;;;5128374;27;20982;-62
2022/12/31 07:10:43;;;;;;;2.63;1.27;;;12.60;68.20;;;;;;5133399;27;20840;-62
2022/12/31 07:13:52;;;;;;;2.13;1.17;;;12.50;68.20;;;;;;5110840;28;20438;-62
2022/12/31 07:16:46;;;;;;;3.10;1.20;;;12.50;68.50;;;;;;5111402;28;20441;-63
2022/12/31 07:19:24;;;;;;;2.90;1.00;;;12.40;69.00;;;;;;5110607;28;20491;-63
2022/12/31 07:21:53;;;;;;;2.00;1.10;;;12.40;69.50;;;;;;5109822;28;20943;-62
2022/12/31 07:24:22;;;;;;;1.90;0.97;;;12.40;70.10;;;;;;5110886;28;20446;-63
2022/12/31 07:27:03;;;;;;;3.30;1.30;;;12.40;70.30;;;;;;5114048;28;20477;-63
2022/12/31 07:29:55;;;;;;;3.40;1.80;;;12.40;70.70;;;;;;5110518;28;20434;-64
2022/12/31 07:32:49;;;;;;;3.43;1.40;;;12.40;70.80;;;;;;5110902;28;21095;-62
2022/12/31 07:35:24;;;;;;;2.60;1.20;;;12.40;71.40;;;;;;5101188;28;20453;-62
2022/12/31 07:37:57;;;;;;;2.50;1.20;;;12.40;71.30;;;;;;5115624;27;20502;-63
2022/12/31 07:40:32;;;;;;;2.33;1.30;;;12.40;71.30;;;;;;5111646;27;20438;-63
2022/12/31 07:43:08;;;;;;;3.50;1.77;;;12.50;71.50;;;;;;5112855;28;20434;-63
2022/12/31 07:45:43;;;;;;;3.03;1.60;;;12.50;71.60;;;;;;5110342;28;20806;-63
2022/12/31 07:48:25;;;;;;;3.47;1.80;;;12.50;71.70;;;;;;5113762;28;20524;-62
2022/12/31 07:50:54;;;;;;;2.47;1.57;;;12.50;71.80;;;;;;5113739;28;20987;-63
2022/12/31 07:53:22;;;;;;;2.90;1.60;;;12.50;72.10;;;;;;5116527;27;20486;-62
2022/12/31 07:55:54;;;;;;;2.40;1.60;;;12.50;73.20;;;;;;5115897;27;20430;-63
2022/12/31 07:58:25;;;;;;;3.83;1.87;;;12.50;73.80;;;;;;5117572;27;20430;-62
2022/12/31 08:00:56;;;;;;;3.80;2.10;;;12.50;74.50;;;;;;5124680;27;20448;-63
2022/12/31 08:03:42;;;;;;;2.50;1.50;;;12.60;74.40;;;;;;5110127;27;20491;-63
2022/12/31 08:06:15;;;;;;;3.07;1.77;;;12.70;74.50;;;;;;5112579;28;20532;-62
2022/12/31 08:08:53;;;;;;;2.23;1.27;;;12.70;74.30;;;;;;5116881;27;20496;-62
2022/12/31 08:11:30;;;;;;;3.70;1.80;;;12.70;74.20;;;;;;5112529;27;20482;-63
2022/12/31 08:14:01;;;;;;;2.30;1.40;;;12.80;74.00;;;;;;5116998;27;20507;-63
2022/12/31 08:16:30;;;;;;;2.50;1.40;;;12.80;73.70;;;;;;5117214;27;20486;-65
2022/12/31 08:18:59;;;;;;;3.60;1.40;;;12.80;73.50;;;;;;5112698;28;20442;-63
2022/12/31 08:21:40;;;;;;;1.90;0.90;;;12.70;73.30;;;;;;5114562;27;20441;-62
2022/12/31 08:24:18;;;;;;;2.00;1.00;;;12.70;73.40;;;;;;5113229;27;20445;-62
2022/12/31 08:26:56;;;;;;;3.17;1.20;;;12.70;73.20;;;;;;5114033;27;20480;-62
2022/12/31 08:29:35;;;;;;;2.20;1.17;;;12.70;73.20;;;;;;5112332;27;20808;-62
2022/12/31 08:32:09;;;;;;;3.10;1.13;;;12.80;72.90;;;;;;5115334;27;20440;-64
2022/12/31 08:34:53;;;;;;;3.00;1.30;;;12.80;72.70;;;;;;5110165;28;20948;-62
2022/12/31 08:37:28;;;;;;;3.10;1.00;;;12.90;72.40;;;;;;5110418;27;20437;-63
2022/12/31 08:40:10;;;;;;;2.57;1.10;;;13.10;71.70;;;;;;5113615;28;20436;-62
2022/12/31 08:42:45;;;;;;;2.40;1.00;;;13.20;71.60;;;;;;5113734;27;20996;-62
2022/12/31 08:45:19;;;;;;;2.17;1.23;;;13.30;71.30;;;;;;5112880;27;20430;-62
2022/12/31 08:47:57;;;;;;;1.90;1.00;;;13.50;71.10;;;;;;5114843;27;20481;-63
2022/12/31 08:50:26;;;;;;;2.40;0.93;;;13.70;70.40;;;;;;5113507;28;20438;-62
2022/12/31 08:52:54;;;;;;;2.53;1.00;;;14.00;69.40;;;;;;5113160;27;20442;-63
2022/12/31 08:55:22;;;;;;;2.93;1.20;;;14.30;68.30;;;;;;5112679;27;20449;-63
2022/12/31 08:58:01;;;;;;;2.90;1.60;;;14.90;67.90;;;;;;5113290;28;20534;-62
2022/12/31 09:00:30;;;;;;;2.73;1.60;;;15.20;64.70;;;;;;5111506;27;20782;-63
2022/12/31 09:03:45;;;;;;;2.20;1.40;;;15.40;62.80;;;;;;5111934;28;20934;-64
2022/12/31 09:06:25;;;;;;;3.13;1.10;;;15.40;62.30;;;;;;5092782;28;20470;-65
2022/12/31 09:08:58;;;;;;;3.27;1.53;;;15.20;61.40;;;;;;5114995;27;20532;-63
2022/12/31 09:11:34;;;;;;;1.80;1.13;;;15.10;61.90;;;;;;5109104;28;20479;-63
2022/12/31 09:14:25;;;;;;;3.07;1.33;;;14.90;62.30;;;;;;5116333;27;20445;-63
2022/12/31 09:17:02;;;;;;;2.70;1.50;;;14.80;63.30;;;;;;5110467;28;20430;-64
2022/12/31 09:19:29;;;;;;;3.53;1.30;;;14.90;63.20;;;;;;5107552;28;20438;-64
2022/12/31 09:21:59;;;;;;;2.73;1.10;;;14.90;63.30;;;;;;5112009;28;20452;-65
2022/12/31 09:24:27;;;;;;;2.00;0.93;;;15.00;62.50;;;;;;5111848;27;20474;-63
2022/12/31 09:27:04;;;;;;;2.20;0.90;;;15.10;62.70;;;;;;5107757;28;20991;-63
2022/12/31 09:29:42;;;;;;;2.00;1.00;;;15.10;62.40;;;;;;5112775;27;20442;-63
2022/12/31 09:32:21;;;;;;;3.17;2.00;;;15.10;62.60;;;;;;5113760;27;20430;-62
2022/12/31 09:34:54;;;;;;;4.03;1.70;;;15.30;61.90;;;;;;5111323;28;20473;-64
2022/12/31 09:37:42;;;;;;;3.13;1.57;;;15.40;61.10;;;;;;5116960;27;20479;-62
2022/12/31 09:40:47;;;;;;;3.07;1.30;;;15.40;61.30;;;;;;5107311;28;20438;-63
2022/12/31 09:44:00;;;;;;;2.50;1.33;;;15.60;60.70;;;;;;5111413;27;20559;-62
2022/12/31 09:47:02;;;;;;;3.20;1.87;;;15.90;60.70;;;;;;5091547;28;20480;-64
2022/12/31 09:50:03;;;;;;;4.00;1.37;;;16.10;59.70;;;;;;5115425;27;20931;-63
2022/12/31 09:52:43;;;;;;;2.80;1.30;;;16.20;59.30;;;;;;5113767;27;20430;-63
2022/12/31 09:55:31;;;;;;;3.83;1.10;;;16.40;59.40;;;;;;5111680;28;20441;-62
2022/12/31 09:58:20;;;;;;;1.80;0.80;;;16.40;59.10;;;;;;5111793;28;20444;-64
2022/12/31 10:00:52;;;;;;;2.00;1.07;;;16.60;59.70;;;;;;5112877;27;20983;-64
2022/12/31 10:03:36;;;;;;;4.27;1.20;;;17.50;60.50;;;;;;5115080;27;20466;-64
2022/12/31 10:06:22;;;;;;;2.73;1.20;;;18.40;58.30;;;;;;5116302;27;20927;-63
2022/12/31 10:09:21;;;;;;;3.10;0.80;;;19.30;56.90;;;;;;5110755;28;20537;-65
2022/12/31 10:12:04;;;;;;;1.90;0.90;;;20.00;54.00;;;;;;5111489;28;20928;-63
2022/12/31 10:14:47;;;;;;;2.47;1.10;;;20.40;52.30;;;;;;5111908;27;20445;-63
2022/12/31 10:17:28;;;;;;;2.43;0.97;;;20.90;51.60;;;;;;5109571;27;20433;-63
2022/12/31 10:20:27;;;;;;;2.13;1.03;;;21.20;50.60;;;;;;5109084;27;20430;-64
2022/12/31 10:23:19;;;;;;;2.27;0.80;;;21.80;50.20;;;;;;5115053;27;20425;-63
2022/12/31 10:26:10;;;;;;;2.30;1.10;;;22.40;48.50;;;;;;5111746;27;20445;-64
2022/12/31 10:28:47;;;;;;;3.03;0.90;;;22.80;48.10;;;;;;5106765;28;20430;-64
2022/12/31 10:31:16;;;;;;;2.63;1.00;;;22.90;46.70;;;;;;5119224;27;20448;-63
2022/12/31 10:33:53;;;;;;;1.87;0.83;;;23.30;45.30;;;;;;5133672;27;20480;-64
2022/12/31 10:36:27;;;;;;;3.70;1.40;;;23.80;43.00;;;;;;5133642;27;20485;-63
2022/12/31 10:39:04;;;;;;;2.87;1.30;;;24.10;45.10;;;;;;5114060;27;20556;-64
2022/12/31 10:42:02;;;;;;;1.80;0.70;;;24.60;44.30;;;;;;5129445;27;20464;-64
2022/12/31 10:45:18;;;;;;;2.33;0.73;;;25.00;40.30;;;;;;5079523;28;20435;-64
2022/12/31 10:48:25;;;;;;;2.33;0.93;;;25.40;41.50;;;;;;5093300;28;20572;-64
2022/12/31 10:51:20;;;;;;;2.40;0.80;;;25.70;38.20;;;;;;5093509;28;20438;-63
2022/12/31 10:54:29;;;;;;;2.20;0.90;;;25.70;37.30;;;;;;5093014;28;20431;-63
2022/12/31 10:57:28;;;;;;;3.33;1.17;;;25.80;37.60;;;;;;5082725;28;20462;-64
2022/12/31 11:00:18;;;;;;;2.03;0.80;;;26.10;36.60;;;;;;5076023;28;20496;-66
2022/12/31 11:03:33;;;;;;;3.47;2.10;;;26.50;36.60;;;;;;5087441;28;20524;-64
2022/12/31 11:06:46;;;;;;;3.67;1.13;;;26.90;37.00;;;;;;5092865;28;20473;-66
2022/12/31 11:09:39;;;;;;;1.90;0.80;;;27.10;34.50;;;;;;5093144;28;20495;-64
2022/12/31 11:12:27;;;;;;;1.93;0.70;;;27.00;35.40;;;;;;5050983;28;20443;-64
2022/12/31 11:15:11;;;;;;;2.10;1.10;;;26.80;35.40;;;;;;5096900;28;20471;-64
2022/12/31 11:17:49;;;;;;;3.00;1.13;;;26.70;35.00;;;;;;5096859;28;20905;-64
2022/12/31 11:20:29;;;;;;;2.53;1.10;;;26.60;34.30;;;;;;5096929;28;20438;-63
2022/12/31 11:23:04;;;;;;;5.77;4.80;;;26.40;34.40;;;;;;5097080;28;20466;-64
2022/12/31 11:25:47;;;;;;;3.30;1.00;;;26.40;36.30;;;;;;5096764;28;20828;-65
2022/12/31 11:28:41;;;;;;;3.00;1.13;;;26.50;35.10;;;;;;5096774;28;20878;-64
2022/12/31 11:31:37;;;;;;;2.23;0.80;;;26.90;34.00;;;;;;5096738;28;20470;-65
2022/12/31 11:34:20;;;;;;;2.37;0.80;;;27.00;33.30;;;;;;5096443;28;20853;-64
2022/12/31 11:37:03;;;;;;;1.90;0.83;;;26.90;33.40;;;;;;5096475;28;20553;-64
2022/12/31 11:39:49;;;;;;;1.70;0.60;;;26.80;33.30;;;;;;5096527;28;20487;-64
2022/12/31 11:42:23;;;;;;;2.10;0.80;;;26.70;33.50;;;;;;5095500;28;20478;-64
2022/12/31 11:44:57;;;;;;;2.60;0.90;;;26.80;34.30;;;;;;5096739;28;20525;-64
2022/12/31 11:47:47;;;;;;;2.23;1.00;;;27.00;33.00;;;;;;5096545;28;20438;-65
2022/12/31 11:50:28;;;;;;;1.80;0.70;;;27.30;32.10;;;;;;5096372;28;20793;-64
2022/12/31 11:53:29;;;;;;;1.80;0.70;;;27.20;31.90;;;;;;5095925;28;20423;-64
2022/12/31 11:56:10;;;;;;;2.50;1.00;;;26.90;31.50;;;;;;5048333;28;20453;-64
2022/12/31 11:58:37;;;;;;;2.33;0.97;;;27.10;31.60;;;;;;5096220;28;20561;-64
2022/12/31 12:01:10;;;;;;;2.87;1.10;;;27.20;31.90;;;;;;5096202;28;20525;-64
2022/12/31 12:03:42;;;;;;;2.70;1.37;;;27.30;31.50;;;;;;5096088;28;20526;-63
2022/12/31 12:06:12;;;;;;;7.50;1.17;;;27.30;31.30;;;;;;5096128;28;20442;-67
2022/12/31 12:08:40;;;;;;;4.23;1.20;;;27.30;31.70;;;;;;5095920;28;20534;-64
2022/12/31 12:11:17;;;;;;;4.97;1.20;;;27.10;31.00;;;;;;5096025;28;20854;-64
2022/12/31 12:13:45;;;;;;;2.20;0.90;;;26.80;31.60;;;;;;5095860;28;20426;-64
2022/12/31 12:16:14;;;;;;;2.30;1.20;;;26.60;32.10;;;;;;5096173;28;21238;-64
2022/12/31 12:18:45;;;;;;;3.17;1.10;;;26.40;32.70;;;;;;5095831;28;20483;-64
2022/12/31 12:21:14;;;;;;;2.40;1.00;;;26.10;34.20;;;;;;5096040;28;20465;-64
2022/12/31 12:23:57;;;;;;;2.13;0.87;;;25.80;35.70;;;;;;5094915;28;20473;-64
2022/12/31 12:26:32;;;;;;;2.20;1.00;;;25.70;35.90;;;;;;5092657;28;20439;-65
2022/12/31 12:29:08;;;;;;;2.30;1.00;;;25.60;36.00;;;;;;5095473;28;20499;-64
2022/12/31 12:31:36;;;;;;;2.40;1.00;;;25.60;36.00;;;;;;5095589;28;20438;-63
2022/12/31 12:34:04;;;;;;;3.30;1.33;;;25.50;36.30;;;;;;5095431;28;20804;-64
2022/12/31 12:36:32;;;;;;;2.57;1.17;;;25.60;37.20;;;;;;5095202;28;20463;-63
2022/12/31 12:39:04;;;;;;;1.97;0.90;;;25.50;35.80;;;;;;5095290;28;20558;-64
2022/12/31 12:41:31;;;;;;;2.40;1.00;;;25.40;35.80;;;;;;5095597;28;20447;-63
2022/12/31 12:44:07;;;;;;;2.07;0.80;;;25.40;35.20;;;;;;5095387;28;20449;-64
2022/12/31 12:46:38;;;;;;;2.33;0.70;;;25.30;33.90;;;;;;5094944;28;20796;-64
2022/12/31 12:49:06;;;;;;;1.90;0.80;;;25.10;34.70;;;;;;5095383;28;20439;-64
2022/12/31 12:51:54;;;;;;;1.87;0.87;;;24.80;33.80;;;;;;5095215;28;20832;-64
2022/12/31 12:54:38;;;;;;;2.27;0.90;;;24.60;35.10;;;;;;5095236;28;20532;-63
2022/12/31 12:57:15;;;;;;;2.20;1.00;;;24.40;36.10;;;;;;5095010;28;20435;-63
2022/12/31 13:00:06;;;;;;;2.10;0.80;;;24.10;36.80;;;;;;5094977;28;20467;-64
2022/12/31 13:02:59;;;;;;;2.63;1.03;;;23.90;38.30;;;;;;5090527;28;20999;-63
2022/12/31 13:05:39;;;;;;;2.00;0.90;;;23.70;37.70;;;;;;5056816;28;20439;-64
2022/12/31 13:08:20;;;;;;;2.30;1.10;;;23.60;38.30;;;;;;5094966;28;20837;-64
2022/12/31 13:11:14;;;;;;;2.50;0.93;;;23.40;37.90;;;;;;5094842;28;20851;-63
2022/12/31 13:13:51;;;;;;;2.30;1.10;;;23.30;37.30;;;;;;5094848;28;20431;-63
2022/12/31 13:16:30;;;;;;;2.50;0.90;;;23.10;37.30;;;;;;5094905;28;20442;-63
2022/12/31 13:19:06;;;;;;;2.63;1.07;;;22.90;37.10;;;;;;5094479;28;20522;-63
2022/12/31 13:21:44;;;;;;;2.47;1.13;;;22.80;37.90;;;;;;5094621;28;20469;-63
2022/12/31 13:24:25;;;;;;;2.20;1.13;;;22.60;37.80;;;;;;5094702;28;20466;-63
2022/12/31 13:26:57;;;;;;;2.40;1.20;;;22.40;37.90;;;;;;5094738;28;20987;-63
2022/12/31 13:29:30;;;;;;;2.20;0.83;;;22.30;37.80;;;;;;5094523;28;20492;-64
2022/12/31 13:32:01;;;;;;;2.23;1.10;;;22.20;37.80;;;;;;5094521;28;20434;-63
2022/12/31 13:34:32;;;;;;;2.27;1.03;;;22.00;38.20;;;;;;5094290;28;20439;-63
2022/12/31 13:37:05;;;;;;;3.93;1.13;;;21.90;38.40;;;;;;5094508;28;20474;-64
2022/12/31 13:39:36;;;;;;;2.73;1.13;;;21.90;38.80;;;;;;5094313;28;20479;-63
2022/12/31 13:42:09;;;;;;;2.17;1.10;;;21.90;38.80;;;;;;5094452;28;20474;-63
2022/12/31 13:44:42;;;;;;;3.60;1.20;;;21.90;38.50;;;;;;5094375;28;20466;-63